Time;durP1;ratioP1;P1;durP2;ratioP2;P2;SDS_P1;SDS_P2;PMS_P1;PMS_P2;Temp;Humidity;BMP_temperature;BMP_pressure;BME280_temperature;BME280_humidity;BME280_pressure;Samples;Min_cycle;Max_cycle;Signal;HPM_P1;HPM_P2
2023/04/11 00:00:23;;;;;;;9.45;7.90;;;12.70;81.60;;;;;;4978170;28;20030;-52
2023/04/11 00:03:09;;;;;;;9.07;7.70;;;12.80;81.50;;;;;;4992468;28;20583;-51
2023/04/11 00:05:55;;;;;;;9.70;7.32;;;12.80;81.50;;;;;;4992556;28;20031;-56
2023/04/11 00:08:43;;;;;;;8.82;7.45;;;12.80;81.50;;;;;;4992177;28;20034;-55
2023/04/11 00:11:30;;;;;;;8.32;7.28;;;12.90;81.40;;;;;;4991977;28;20066;-49
2023/04/11 00:14:17;;;;;;;8.30;6.93;;;12.90;81.70;;;;;;4992903;28;20042;-52
2023/04/11 00:17:04;;;;;;;8.68;7.78;;;12.90;81.70;;;;;;4990682;28;20459;-56
2023/04/11 00:19:52;;;;;;;8.25;7.45;;;12.80;81.90;;;;;;4977367;28;20032;-53
2023/04/11 00:22:38;;;;;;;9.13;7.88;;;12.80;82.00;;;;;;4992910;28;20035;-53
2023/04/11 00:25:25;;;;;;;8.32;7.20;;;12.80;81.90;;;;;;4990543;28;20027;-54
2023/04/11 00:28:11;;;;;;;7.65;6.85;;;12.80;82.00;;;;;;4976986;28;20038;-50
2023/04/11 00:30:57;;;;;;;8.70;7.30;;;12.70;82.50;;;;;;4992514;28;20402;-49
2023/04/11 00:33:43;;;;;;;7.72;6.90;;;12.70;82.00;;;;;;4989481;28;20503;-49
2023/04/11 00:36:30;;;;;;;8.00;7.18;;;12.80;81.70;;;;;;4987745;28;20046;-53
2023/04/11 00:39:17;;;;;;;8.15;7.32;;;12.80;81.50;;;;;;4992604;28;20105;-52
2023/04/11 00:42:05;;;;;;;8.15;7.22;;;12.80;80.80;;;;;;4976202;28;20104;-51
2023/04/11 00:44:51;;;;;;;8.93;7.47;;;12.80;80.70;;;;;;4980989;28;20031;-53
2023/04/11 00:47:37;;;;;;;8.68;7.40;;;12.80;80.60;;;;;;4991388;28;20033;-51
2023/04/11 00:50:23;;;;;;;8.55;6.90;;;12.90;80.20;;;;;;4973271;28;20126;-53
2023/04/11 00:53:13;;;;;;;8.25;6.60;;;12.90;80.30;;;;;;4972927;28;20023;-52
2023/04/11 00:55:59;;;;;;;8.73;7.00;;;12.90;79.90;;;;;;4991994;28;20151;-55
2023/04/11 00:58:45;;;;;;;7.65;6.40;;;12.80;80.30;;;;;;4977150;28;20093;-53
2023/04/11 01:01:34;;;;;;;7.60;6.72;;;12.80;80.60;;;;;;4992727;28;20039;-53
2023/04/11 01:04:20;;;;;;;8.13;7.32;;;12.70;81.20;;;;;;4986935;28;20474;-57
2023/04/11 01:07:09;;;;;;;7.25;6.28;;;12.70;82.30;;;;;;4992923;28;20507;-51
2023/04/11 01:09:55;;;;;;;7.78;6.85;;;12.50;83.90;;;;;;4994234;28;20423;-54
2023/04/11 01:12:42;;;;;;;9.07;6.97;;;12.50;86.30;;;;;;4994807;28;20031;-56
2023/04/11 01:15:28;;;;;;;8.40;7.18;;;12.20;88.40;;;;;;4994166;28;20039;-50
2023/04/11 01:18:14;;;;;;;8.52;7.25;;;12.20;89.90;;;;;;4994131;28;20027;-50
2023/04/11 01:21:00;;;;;;;8.80;7.72;;;12.20;90.60;;;;;;4962068;28;20023;-51
2023/04/11 01:23:47;;;;;;;8.50;7.50;;;12.20;91.00;;;;;;4980310;28;20029;-56
2023/04/11 01:26:34;;;;;;;8.40;7.40;;;12.10;92.00;;;;;;4980173;28;20057;-56
2023/04/11 01:29:20;;;;;;;9.32;7.53;;;12.00;92.70;;;;;;4994790;28;20030;-53
2023/04/11 01:32:06;;;;;;;9.57;7.70;;;11.90;93.30;;;;;;4994416;28;20411;-54
2023/04/11 01:34:55;;;;;;;9.25;8.05;;;11.80;94.50;;;;;;4974612;28;20058;-52
2023/04/11 01:37:41;;;;;;;11.27;7.93;;;11.80;95.00;;;;;;4975870;28;20527;-54
2023/04/11 01:40:28;;;;;;;9.82;8.27;;;11.80;95.30;;;;;;4992731;28;20061;-54
2023/04/11 01:43:14;;;;;;;9.63;7.90;;;11.80;95.90;;;;;;4997273;28;20034;-53
2023/04/11 01:46:00;;;;;;;8.98;8.07;;;11.70;96.50;;;;;;4999134;28;20038;-54
2023/04/11 01:48:49;;;;;;;9.95;8.00;;;11.70;97.10;;;;;;4966558;28;20073;-56
2023/04/11 01:51:35;;;;;;;10.27;8.52;;;11.70;97.60;;;;;;4988396;28;20084;-54
2023/04/11 01:54:21;;;;;;;10.00;8.82;;;11.50;98.30;;;;;;4995483;28;20495;-51
2023/04/11 01:57:07;;;;;;;10.93;9.73;;;11.50;98.90;;;;;;4992975;28;20033;-51
2023/04/11 01:59:53;;;;;;;11.25;9.80;;;11.50;99.20;;;;;;4994471;28;20033;-55
2023/04/11 02:02:39;;;;;;;11.05;9.70;;;11.50;99.50;;;;;;4986518;28;20026;-55
2023/04/11 02:05:25;;;;;;;11.52;9.48;;;11.50;99.40;;;;;;4993996;28;20030;-58
2023/04/11 02:08:11;;;;;;;12.57;10.25;;;11.30;99.90;;;;;;4975316;28;20411;-53
2023/04/11 02:10:57;;;;;;;10.88;9.25;;;11.30;99.90;;;;;;4992335;28;20156;-53
2023/04/11 02:13:43;;;;;;;11.02;8.48;;;11.30;99.90;;;;;;4993652;28;20045;-53
2023/04/11 02:16:29;;;;;;;12.30;9.18;;;11.20;99.90;;;;;;4993646;28;20042;-55
2023/04/11 02:19:15;;;;;;;10.88;9.30;;;11.20;99.90;;;;;;4993428;28;20502;-58
2023/04/11 02:22:01;;;;;;;13.52;10.27;;;11.20;99.90;;;;;;4993823;28;20042;-59
2023/04/11 02:24:47;;;;;;;13.05;10.13;;;11.10;99.90;;;;;;4979170;28;20118;-61
2023/04/11 02:27:33;;;;;;;12.73;10.27;;;11.00;99.90;;;;;;4974768;28;20030;-60
2023/04/11 02:30:19;;;;;;;12.57;10.52;;;10.90;99.90;;;;;;4977851;28;20092;-57
2023/04/11 02:33:05;;;;;;;12.77;10.40;;;10.90;99.90;;;;;;4977968;28;20062;-59
2023/04/11 02:35:52;;;;;;;15.63;11.02;;;10.90;99.90;;;;;;4992139;28;20150;-58
2023/04/11 02:38:38;;;;;;;13.85;11.93;;;10.80;99.90;;;;;;4993877;28;20033;-57
2023/04/11 02:41:24;;;;;;;13.80;11.55;;;10.80;99.90;;;;;;4978551;28;20495;-55
2023/04/11 02:44:11;;;;;;;13.88;12.02;;;10.70;99.90;;;;;;4993060;28;20038;-53
2023/04/11 02:47:00;;;;;;;12.70;10.90;;;10.80;99.90;;;;;;4992744;28;20030;-55
2023/04/11 02:49:45;;;;;;;14.43;11.20;;;10.80;99.90;;;;;;4984922;28;20034;-55
2023/04/11 02:52:32;;;;;;;13.45;9.98;;;10.80;99.90;;;;;;4974300;28;20035;-56
2023/04/11 02:55:18;;;;;;;13.55;10.00;;;10.80;99.90;;;;;;4975547;28;20379;-54
2023/04/11 02:58:04;;;;;;;11.90;9.45;;;10.90;99.90;;;;;;4964605;28;20057;-54
2023/04/11 03:00:50;;;;;;;12.07;10.63;;;10.90;99.90;;;;;;4993349;28;20027;-58
2023/04/11 03:03:37;;;;;;;10.30;8.77;;;10.90;99.90;;;;;;4986079;28;20038;-55
2023/04/11 03:06:23;;;;;;;12.10;9.32;;;10.90;99.90;;;;;;4989540;28;20128;-54
2023/04/11 03:09:09;;;;;;;10.00;9.00;;;10.90;99.90;;;;;;4991653;28;20487;-54
2023/04/11 03:11:55;;;;;;;10.27;9.18;;;10.90;99.90;;;;;;4986267;28;20080;-54
2023/04/11 03:14:41;;;;;;;15.60;12.68;;;10.80;99.90;;;;;;4992366;28;20329;-54
2023/04/11 03:17:27;;;;;;;11.88;9.77;;;10.80;99.90;;;;;;4977203;28;20081;-57
2023/04/11 03:20:18;;;;;;;12.60;10.52;;;10.80;99.90;;;;;;4991646;28;20038;-54
2023/04/11 03:23:04;;;;;;;13.18;10.93;;;10.80;99.90;;;;;;4992002;28;20066;-54
2023/04/11 03:25:50;;;;;;;16.85;13.50;;;10.90;99.90;;;;;;4978294;28;20566;-52
2023/04/11 03:28:36;;;;;;;17.10;13.77;;;10.80;99.90;;;;;;4977530;28;20074;-53
2023/04/11 03:31:22;;;;;;;18.02;14.30;;;10.80;99.90;;;;;;4976677;28;20122;-54
2023/04/11 03:34:08;;;;;;;18.50;14.57;;;10.70;99.90;;;;;;4991600;28;20041;-52
2023/04/11 03:36:54;;;;;;;17.00;13.48;;;10.70;99.90;;;;;;4992112;28;20023;-56
2023/04/11 03:39:40;;;;;;;18.65;13.05;;;10.60;99.90;;;;;;4991515;28;20026;-53
2023/04/11 03:42:26;;;;;;;16.42;11.38;;;10.70;99.90;;;;;;4992215;28;20038;-55
2023/04/11 03:45:12;;;;;;;14.38;10.90;;;10.60;99.90;;;;;;4992111;28;20027;-52
2023/04/11 03:47:58;;;;;;;13.55;10.75;;;10.60;99.90;;;;;;4977347;28;20026;-55
2023/04/11 03:50:44;;;;;;;14.25;10.25;;;10.70;99.90;;;;;;4991926;28;20105;-55
2023/04/11 03:53:29;;;;;;;12.52;10.68;;;10.70;99.90;;;;;;4991557;28;20034;-57
2023/04/11 03:56:15;;;;;;;11.52;10.23;;;10.60;99.90;;;;;;4991556;28;20113;-58
2023/04/11 03:59:01;;;;;;;12.85;10.45;;;10.60;99.90;;;;;;4991473;28;20030;-52
2023/04/11 04:01:47;;;;;;;12.63;10.32;;;10.60;99.90;;;;;;4977179;28;20085;-53
2023/04/11 04:04:33;;;;;;;12.82;9.90;;;10.60;99.90;;;;;;4991508;28;20125;-54
2023/04/11 04:07:23;;;;;;;13.27;10.68;;;10.60;99.90;;;;;;4956188;28;20146;-56
2023/04/11 04:10:09;;;;;;;12.45;10.98;;;10.70;99.90;;;;;;4977093;28;20026;-55
2023/04/11 04:12:55;;;;;;;11.77;10.23;;;10.60;99.90;;;;;;4992593;28;20495;-54
2023/04/11 04:15:41;;;;;;;12.40;10.23;;;10.60;99.90;;;;;;4991598;28;20053;-51
2023/04/11 04:18:27;;;;;;;12.63;10.63;;;10.50;99.90;;;;;;4992404;28;20450;-57
2023/04/11 04:21:14;;;;;;;11.75;9.65;;;10.40;99.90;;;;;;4992612;28;20554;-55
2023/04/11 04:24:02;;;;;;;10.52;9.25;;;10.50;99.90;;;;;;4979884;28;20364;-52
2023/04/11 04:26:48;;;;;;;11.90;9.82;;;10.40;99.90;;;;;;4990769;28;20026;-51
2023/04/11 04:29:37;;;;;;;12.88;10.05;;;10.40;99.90;;;;;;4992371;28;20574;-56
2023/04/11 04:32:23;;;;;;;10.88;9.30;;;10.40;99.90;;;;;;4991045;28;20122;-55
2023/04/11 04:35:12;;;;;;;11.43;10.23;;;10.40;99.90;;;;;;4991322;28;20511;-53
2023/04/11 04:38:05;;;;;;;12.15;9.10;;;10.30;99.90;;;;;;4991477;28;20034;-55
2023/04/11 04:40:53;;;;;;;12.80;9.77;;;10.20;99.90;;;;;;4990989;28;20041;-50
2023/04/11 04:43:41;;;;;;;13.32;9.48;;;10.20;99.90;;;;;;4992812;28;20039;-52
2023/04/11 04:46:30;;;;;;;9.45;8.45;;;10.30;99.90;;;;;;4996417;28;20027;-55
2023/04/11 04:49:16;;;;;;;12.40;9.55;;;10.30;99.90;;;;;;4996130;28;20439;-53
2023/04/11 04:52:02;;;;;;;10.80;9.52;;;10.20;99.90;;;;;;4995467;28;20065;-53
2023/04/11 04:54:48;;;;;;;12.73;8.80;;;10.30;99.90;;;;;;4982930;28;20041;-55
2023/04/11 04:57:34;;;;;;;11.25;9.15;;;10.30;99.90;;;;;;4980746;28;20038;-53
2023/04/11 05:00:20;;;;;;;12.00;8.95;;;10.20;99.90;;;;;;4994111;28;20077;-53
2023/04/11 05:03:07;;;;;;;10.20;8.93;;;10.20;99.90;;;;;;4994548;28;20030;-56
2023/04/11 05:05:53;;;;;;;14.40;9.15;;;10.30;99.90;;;;;;4994960;28;20030;-54
2023/04/11 05:08:39;;;;;;;11.18;8.95;;;10.30;99.90;;;;;;4995965;28;20027;-53
2023/04/11 05:11:26;;;;;;;9.80;8.23;;;10.30;99.90;;;;;;4994930;28;20035;-51
2023/04/11 05:14:12;;;;;;;9.32;7.97;;;10.40;99.90;;;;;;4994763;28;20439;-53
2023/04/11 05:16:58;;;;;;;9.95;8.30;;;10.30;99.90;;;;;;4994368;28;20026;-57
2023/04/11 05:19:44;;;;;;;11.55;9.00;;;10.20;99.90;;;;;;4993530;28;20106;-53
2023/04/11 05:22:30;;;;;;;9.70;8.18;;;10.20;99.90;;;;;;4996092;28;20023;-55
2023/04/11 05:25:16;;;;;;;10.57;8.18;;;10.30;99.90;;;;;;4977254;28;20515;-57
2023/04/11 05:28:02;;;;;;;10.15;8.48;;;10.30;99.90;;;;;;4995633;28;20046;-57
2023/04/11 05:30:48;;;;;;;9.68;7.85;;;10.20;99.90;;;;;;4995194;28;20030;-53
2023/04/11 05:33:37;;;;;;;8.77;7.38;;;10.30;99.90;;;;;;4994449;28;20045;-54
2023/04/11 05:36:23;;;;;;;10.55;7.22;;;10.30;99.90;;;;;;4994826;28;20022;-53
2023/04/11 05:39:09;;;;;;;10.98;7.40;;;10.40;99.90;;;;;;4994997;28;20018;-53
2023/04/11 05:41:55;;;;;;;7.68;6.18;;;10.50;99.90;;;;;;4993576;28;20065;-55
2023/04/11 05:44:42;;;;;;;11.13;7.22;;;10.50;99.90;;;;;;4993618;28;20053;-59
2023/04/11 05:47:27;;;;;;;8.98;6.50;;;10.40;99.90;;;;;;4993484;28;20034;-56
2023/04/11 05:50:14;;;;;;;8.38;6.80;;;10.40;99.90;;;;;;4985211;28;20060;-53
2023/04/11 05:53:00;;;;;;;9.63;6.88;;;10.50;99.90;;;;;;4993367;28;20034;-55
2023/04/11 05:55:46;;;;;;;10.10;7.10;;;10.40;99.90;;;;;;4989263;28;20035;-51
2023/04/11 05:58:33;;;;;;;7.68;6.60;;;10.40;99.90;;;;;;4985879;28;20598;-49
2023/04/11 06:01:19;;;;;;;8.32;6.00;;;10.30;99.90;;;;;;4993797;28;20038;-56
2023/04/11 06:04:05;;;;;;;8.48;6.32;;;10.40;99.90;;;;;;4975321;28;20027;-52
2023/04/11 06:06:52;;;;;;;7.45;5.97;;;10.40;99.90;;;;;;4974897;28;20027;-54
2023/04/11 06:09:41;;;;;;;6.05;5.20;;;10.50;99.90;;;;;;4992702;28;20028;-53
2023/04/11 06:12:27;;;;;;;6.10;4.60;;;10.50;99.90;;;;;;4994218;28;20026;-51
2023/04/11 06:15:13;;;;;;;7.20;5.45;;;10.50;99.90;;;;;;4995120;28;20072;-52
2023/04/11 06:17:59;;;;;;;5.70;4.78;;;10.50;99.90;;;;;;4993293;28;20037;-52
2023/04/11 06:20:45;;;;;;;6.28;4.20;;;10.40;99.90;;;;;;4993554;28;20033;-51
2023/04/11 06:23:31;;;;;;;6.00;4.85;;;10.40;99.90;;;;;;4992699;28;20027;-52
2023/04/11 06:26:17;;;;;;;6.55;4.65;;;10.40;99.90;;;;;;4989620;28;20123;-52
2023/04/11 06:29:04;;;;;;;6.10;4.30;;;10.60;99.90;;;;;;4979412;28;20040;-53
2023/04/11 06:31:50;;;;;;;6.55;4.38;;;10.70;99.90;;;;;;4993589;28;20084;-53
2023/04/11 06:34:39;;;;;;;5.05;3.78;;;10.80;99.90;;;;;;4974451;28;20027;-54
2023/04/11 06:37:26;;;;;;;7.10;4.28;;;10.80;99.90;;;;;;4974776;28;20038;-55
2023/04/11 06:40:12;;;;;;;5.75;4.18;;;10.90;99.90;;;;;;4992032;28;20049;-52
2023/04/11 06:42:59;;;;;;;6.65;3.92;;;11.00;99.90;;;;;;4977194;28;20034;-51
2023/04/11 06:45:46;;;;;;;6.03;3.60;;;11.10;99.90;;;;;;4992800;28;20577;-52
2023/04/11 06:48:31;;;;;;;4.28;3.50;;;11.00;99.90;;;;;;4991615;28;20031;-52
2023/04/11 06:51:17;;;;;;;5.45;3.78;;;11.00;99.90;;;;;;4971030;28;20041;-56
2023/04/11 06:54:05;;;;;;;5.30;3.72;;;11.00;99.90;;;;;;4993035;28;20109;-54
2023/04/11 06:56:51;;;;;;;5.50;4.03;;;10.90;99.90;;;;;;4988809;28;20046;-54
2023/04/11 06:59:37;;;;;;;5.30;3.83;;;11.00;99.90;;;;;;4991626;28;20030;-53
2023/04/11 07:02:24;;;;;;;5.35;3.40;;;10.80;99.90;;;;;;4982250;28;20439;-54
2023/04/11 07:05:10;;;;;;;4.10;2.80;;;10.90;99.90;;;;;;4992080;28;20034;-55
2023/04/11 07:07:56;;;;;;;5.25;3.25;;;10.70;99.90;;;;;;4991565;28;20065;-54
2023/04/11 07:10:42;;;;;;;6.03;3.25;;;10.80;99.90;;;;;;4993169;28;20046;-55
2023/04/11 07:13:28;;;;;;;4.80;3.17;;;10.80;99.90;;;;;;4991483;28;20034;-56
2023/04/11 07:16:14;;;;;;;3.63;2.65;;;10.80;99.90;;;;;;4992263;28;20034;-56
2023/04/11 07:19:01;;;;;;;4.22;2.80;;;10.90;99.90;;;;;;4994660;28;20494;-56
2023/04/11 07:21:48;;;;;;;6.00;3.35;;;10.90;99.90;;;;;;4994211;28;20034;-53
2023/04/11 07:24:34;;;;;;;4.63;2.33;;;10.90;99.90;;;;;;4992074;28;20034;-55
2023/04/11 07:27:22;;;;;;;3.53;2.85;;;11.00;99.90;;;;;;4992863;28;20491;-58
2023/04/11 07:30:08;;;;;;;6.72;2.40;;;11.00;99.90;;;;;;4991917;28;20096;-52
2023/04/11 07:32:54;;;;;;;5.40;2.72;;;10.90;99.90;;;;;;4992083;28;20030;-53
2023/04/11 07:35:40;;;;;;;5.20;2.40;;;10.80;99.90;;;;;;4993106;28;20126;-54
2023/04/11 07:38:28;;;;;;;5.35;2.30;;;10.80;99.90;;;;;;4986010;28;20026;-57
2023/04/11 07:41:15;;;;;;;5.82;2.72;;;10.90;99.90;;;;;;4983076;28;20045;-57
2023/04/11 07:44:06;;;;;;;6.00;2.60;;;11.00;99.90;;;;;;4982482;28;20045;-53
2023/04/11 07:46:51;;;;;;;4.28;2.40;;;11.00;99.90;;;;;;4984939;28;20043;-56
2023/04/11 07:49:37;;;;;;;6.90;3.00;;;11.10;99.90;;;;;;4991418;28;20036;-54
2023/04/11 07:52:24;;;;;;;7.35;3.33;;;11.30;99.90;;;;;;4987576;28;20038;-55
2023/04/11 07:55:10;;;;;;;7.32;3.45;;;11.50;99.90;;;;;;4998417;28;20022;-56
2023/04/11 07:57:56;;;;;;;4.90;3.10;;;11.40;99.90;;;;;;4994158;28;20089;-54
2023/04/11 08:00:42;;;;;;;7.07;3.47;;;11.30;99.90;;;;;;4989962;28;20439;-55
2023/04/11 08:03:28;;;;;;;9.00;4.22;;;11.30;99.90;;;;;;4990823;28;20084;-52
2023/04/11 08:06:14;;;;;;;5.97;3.55;;;11.30;99.90;;;;;;4992063;28;20034;-51
2023/04/11 08:09:00;;;;;;;7.03;3.38;;;11.50;99.90;;;;;;4988891;28;20033;-53
2023/04/11 08:11:46;;;;;;;6.35;3.55;;;11.50;99.90;;;;;;4978170;28;20116;-53
2023/04/11 08:14:32;;;;;;;8.07;3.60;;;11.60;99.90;;;;;;4987007;28;20841;-53
2023/04/11 08:17:18;;;;;;;5.82;3.10;;;11.70;99.90;;;;;;4993269;28;20034;-54
2023/04/11 08:20:07;;;;;;;10.02;4.05;;;11.80;99.90;;;;;;4995539;28;20078;-54
2023/04/11 08:22:53;;;;;;;5.65;3.33;;;11.50;99.90;;;;;;4993562;28;20023;-55
2023/04/11 08:25:40;;;;;;;10.57;4.05;;;11.60;99.90;;;;;;4992270;28;20042;-54
2023/04/11 08:28:26;;;;;;;12.85;4.55;;;11.40;99.90;;;;;;4995445;28;20037;-56
2023/04/11 08:31:12;;;;;;;8.20;3.45;;;11.20;99.90;;;;;;4994979;28;20043;-52
2023/04/11 08:33:58;;;;;;;6.60;3.67;;;11.20;99.50;;;;;;4992957;28;20046;-53
2023/04/11 08:36:44;;;;;;;9.80;3.53;;;11.20;99.10;;;;;;4993074;28;20030;-53
2023/04/11 08:39:30;;;;;;;7.85;3.72;;;11.20;99.20;;;;;;4985243;28;20018;-54
2023/04/11 08:42:27;;;;;;;10.43;4.05;;;11.30;99.40;;;;;;4992430;28;20038;-54
2023/04/11 08:45:13;;;;;;;12.00;3.83;;;11.50;98.90;;;;;;4993795;28;20042;-55
2023/04/11 08:47:59;;;;;;;5.68;3.42;;;11.40;98.00;;;;;;4992473;28;20046;-51
2023/04/11 08:50:45;;;;;;;8.80;4.00;;;11.40;98.90;;;;;;4987650;28;20081;-55
2023/04/11 08:53:37;;;;;;;6.95;3.95;;;11.70;98.30;;;;;;4976352;28;20026;-51
2023/04/11 08:56:23;;;;;;;7.63;3.00;;;11.70;97.30;;;;;;4995726;28;20095;-54
2023/04/11 08:59:09;;;;;;;8.63;3.20;;;11.90;97.00;;;;;;4995386;28;20565;-51
2023/04/11 09:02:08;;;;;;;9.35;3.30;;;12.10;96.40;;;;;;4977012;28;20514;-53
2023/04/11 09:04:56;;;;;;;9.57;3.30;;;12.10;96.30;;;;;;5000365;28;20034;-54
2023/04/11 09:07:49;;;;;;;7.95;3.30;;;12.10;95.60;;;;;;5004416;28;20030;-54
2023/04/11 09:10:36;;;;;;;11.70;3.78;;;12.10;95.20;;;;;;5002400;28;20089;-51
2023/04/11 09:13:23;;;;;;;6.63;3.55;;;12.10;94.50;;;;;;5001548;28;20030;-57
2023/04/11 09:16:12;;;;;;;10.02;3.83;;;12.10;94.80;;;;;;4996503;28;20038;-58
2023/04/11 09:18:58;;;;;;;7.03;3.35;;;12.20;94.80;;;;;;4961366;28;20484;-53
2023/04/11 09:21:51;;;;;;;10.98;3.55;;;12.50;94.30;;;;;;4988316;28;20034;-52
2023/04/11 09:24:37;;;;;;;10.18;3.83;;;12.50;94.50;;;;;;4995418;28;20113;-55
2023/04/11 09:27:25;;;;;;;6.18;2.10;;;12.50;94.60;;;;;;4994633;28;20495;-54
2023/04/11 09:30:23;;;;;;;3.53;1.73;;;11.10;96.00;;;;;;4994758;28;20041;-55
2023/04/11 09:33:22;;;;;;;3.95;2.00;;;9.70;99.30;;;;;;5000170;28;20510;-56
2023/04/11 09:36:20;;;;;;;4.57;2.67;;;9.10;99.90;;;;;;5003121;28;20483;-52
2023/04/11 09:39:19;;;;;;;3.25;2.25;;;8.80;99.90;;;;;;4974908;28;20027;-52
2023/04/11 09:42:26;;;;;;;5.72;2.30;;;9.00;99.90;;;;;;4992358;28;20031;-54
2023/04/11 09:45:17;;;;;;;3.50;1.90;;;9.00;99.90;;;;;;4993130;28;20035;-55
2023/04/11 09:48:04;;;;;;;4.50;2.17;;;9.30;99.90;;;;;;4992101;28;20495;-54
2023/04/11 09:50:51;;;;;;;2.25;2.00;;;9.70;99.90;;;;;;4991427;28;20065;-52
2023/04/11 09:53:37;;;;;;;4.78;2.40;;;10.00;99.90;;;;;;4992918;28;20057;-53
2023/04/11 09:56:25;;;;;;;3.97;2.88;;;10.40;99.90;;;;;;4991924;28;20096;-49
2023/04/11 09:59:13;;;;;;;4.90;2.58;;;10.60;99.50;;;;;;4986221;28;20388;-52
2023/04/11 10:01:59;;;;;;;6.22;3.15;;;10.80;99.20;;;;;;4976757;28;20052;-54
2023/04/11 10:04:46;;;;;;;4.57;2.75;;;10.50;98.50;;;;;;4993727;28;20439;-50
2023/04/11 10:07:34;;;;;;;4.22;2.72;;;10.40;98.80;;;;;;4994228;28;20066;-52
2023/04/11 10:10:22;;;;;;;5.40;3.55;;;10.50;98.90;;;;;;4992823;28;20395;-52
2023/04/11 10:13:33;;;;;;;3.63;3.20;;;10.50;98.20;;;;;;4994805;28;20022;-50
2023/04/11 10:16:21;;;;;;;12.50;3.80;;;10.60;98.60;;;;;;4994054;28;20038;-51
2023/04/11 10:19:06;;;;;;;5.63;3.90;;;10.90;98.20;;;;;;4993587;28;20056;-55
2023/04/11 10:21:52;;;;;;;9.27;3.63;;;10.90;98.30;;;;;;4993644;28;20057;-53
2023/04/11 10:24:38;;;;;;;4.72;3.20;;;11.10;98.60;;;;;;4994566;28;20027;-52
2023/04/11 10:28:00;;;;;;;4.50;3.58;;;11.30;97.40;;;;;;4986428;28;20188;-52
2023/04/11 10:31:00;;;;;;;4.88;3.05;;;11.50;97.80;;;;;;4962853;28;20466;-59
2023/04/11 10:34:13;;;;;;;5.18;3.05;;;11.50;96.50;;;;;;4992899;28;20026;-56
2023/04/11 10:37:06;;;;;;;3.60;2.67;;;11.60;96.80;;;;;;4974412;28;20529;-53
2023/04/11 10:39:52;;;;;;;4.35;3.20;;;11.40;96.30;;;;;;4978339;28;20030;-53
2023/04/11 10:42:42;;;;;;;4.90;2.60;;;11.60;96.20;;;;;;4991974;28;20041;-50
2023/04/11 10:45:29;;;;;;;3.55;2.47;;;11.70;95.20;;;;;;4992470;28;20081;-50
2023/04/11 10:48:15;;;;;;;2.67;2.08;;;11.90;95.00;;;;;;4992072;28;20065;-51
2023/04/11 10:51:23;;;;;;;5.07;2.42;;;12.00;94.80;;;;;;4993725;28;20034;-53
2023/04/11 10:54:24;;;;;;;3.88;2.35;;;11.80;94.10;;;;;;4980392;28;20376;-53
2023/04/11 10:57:10;;;;;;;4.85;2.58;;;11.70;94.30;;;;;;4992953;28;20034;-56
2023/04/11 10:59:56;;;;;;;3.78;2.40;;;11.70;94.60;;;;;;4993472;28;20568;-55
2023/04/11 11:02:43;;;;;;;3.90;2.83;;;11.60;94.40;;;;;;4959002;28;20060;-56
2023/04/11 11:05:28;;;;;;;3.97;2.53;;;11.40;95.00;;;;;;4944666;28;20050;-55
2023/04/11 11:08:25;;;;;;;4.35;3.22;;;11.50;95.30;;;;;;4985269;28;20392;-56
2023/04/11 11:11:11;;;;;;;5.30;2.83;;;11.60;94.90;;;;;;4992863;28;20031;-52
2023/04/11 11:13:59;;;;;;;4.70;2.67;;;11.60;94.60;;;;;;4972991;28;20035;-52
2023/04/11 11:16:45;;;;;;;3.78;2.90;;;11.70;95.10;;;;;;4985804;28;20102;-55
2023/04/11 11:19:32;;;;;;;5.18;3.38;;;11.70;94.30;;;;;;4991005;28;20034;-53
2023/04/11 11:22:24;;;;;;;6.10;3.08;;;11.90;94.70;;;;;;4991554;28;20034;-53
2023/04/11 11:25:10;;;;;;;6.30;3.17;;;11.90;94.00;;;;;;4981477;28;20085;-53
2023/04/11 11:28:05;;;;;;;5.18;3.88;;;12.00;95.20;;;;;;4993091;28;20495;-56
2023/04/11 11:30:53;;;;;;;5.85;3.05;;;12.00;94.40;;;;;;4994237;28;20035;-54
2023/04/11 11:33:40;;;;;;;4.95;3.13;;;12.00;94.30;;;;;;4990542;28;20041;-55
2023/04/11 11:36:28;;;;;;;6.55;3.63;;;12.00;94.20;;;;;;4990959;28;20034;-51
2023/04/11 11:39:14;;;;;;;5.22;3.00;;;11.90;94.00;;;;;;4992277;28;20070;-51
2023/04/11 11:42:00;;;;;;;6.30;2.80;;;12.10;93.40;;;;;;4976599;28;20039;-52
2023/04/11 11:44:46;;;;;;;5.95;3.00;;;12.20;93.30;;;;;;4992292;28;20030;-51
2023/04/11 11:47:44;;;;;;;4.88;3.70;;;12.30;93.70;;;;;;4991479;28;20030;-51
2023/04/11 11:50:31;;;;;;;6.07;3.97;;;12.30;95.20;;;;;;4991604;28;20025;-55
2023/04/11 11:53:17;;;;;;;8.18;4.20;;;12.10;95.40;;;;;;4991275;28;20065;-54
2023/04/11 11:56:13;;;;;;;8.55;3.88;;;12.10;94.40;;;;;;4991658;28;20363;-56
2023/04/11 11:58:59;;;;;;;13.05;4.63;;;12.00;94.50;;;;;;4991663;28;20038;-51
2023/04/11 12:01:45;;;;;;;8.80;5.40;;;12.10;94.80;;;;;;4991079;28;20037;-51
2023/04/11 12:04:32;;;;;;;7.85;4.90;;;11.80;95.30;;;;;;4974659;28;20030;-52
2023/04/11 12:07:21;;;;;;;8.63;4.47;;;11.80;95.80;;;;;;4987217;28;20027;-55
2023/04/11 12:10:12;;;;;;;8.13;4.75;;;12.10;95.60;;;;;;4990997;28;20027;-56
2023/04/11 12:12:58;;;;;;;12.50;5.00;;;12.30;95.40;;;;;;4989926;28;20031;-56
2023/04/11 12:15:49;;;;;;;6.43;4.53;;;12.60;94.80;;;;;;4990941;28;20023;-55
2023/04/11 12:18:40;;;;;;;6.18;4.30;;;12.60;95.10;;;;;;4975779;28;20033;-56
2023/04/11 12:21:27;;;;;;;8.18;4.70;;;12.90;93.70;;;;;;4983895;28;20113;-53
2023/04/11 12:24:12;;;;;;;7.07;4.47;;;12.90;93.10;;;;;;4989815;28;20114;-58
2023/04/11 12:26:58;;;;;;;6.55;4.93;;;12.60;93.40;;;;;;4990325;28;20061;-56
2023/04/11 12:29:45;;;;;;;10.07;5.25;;;12.60;93.80;;;;;;4986108;28;20073;-54
2023/04/11 12:32:32;;;;;;;7.32;4.50;;;12.70;93.90;;;;;;4977152;28;20402;-54
2023/04/11 12:35:18;;;;;;;8.05;4.63;;;12.80;93.80;;;;;;4990844;28;20123;-56
2023/04/11 12:38:05;;;;;;;5.43;4.03;;;13.00;93.70;;;;;;4991017;28;20042;-51
2023/04/11 12:40:52;;;;;;;7.50;3.60;;;12.80;93.20;;;;;;4991656;28;20549;-52
2023/04/11 12:43:38;;;;;;;5.35;3.58;;;13.00;92.30;;;;;;4991079;28;20066;-53
2023/04/11 12:46:25;;;;;;;9.90;4.22;;;12.70;92.60;;;;;;4990720;28;20035;-51
2023/04/11 12:49:11;;;;;;;6.30;4.00;;;12.60;92.90;;;;;;4977093;28;20045;-54
2023/04/11 12:51:56;;;;;;;5.97;3.95;;;12.80;92.80;;;;;;4991468;28;20041;-54
2023/04/11 12:54:42;;;;;;;6.60;3.53;;;12.80;92.20;;;;;;4991637;28;20041;-55
2023/04/11 12:57:29;;;;;;;6.78;3.22;;;12.90;91.30;;;;;;4976921;28;20029;-56
2023/04/11 13:00:15;;;;;;;5.35;2.90;;;12.70;91.60;;;;;;4985747;28;20038;-54
2023/04/11 13:03:03;;;;;;;5.75;2.67;;;12.70;91.70;;;;;;4976446;28;20450;-53
2023/04/11 13:05:49;;;;;;;5.35;2.75;;;12.70;91.40;;;;;;4994215;28;20035;-54
2023/04/11 13:08:36;;;;;;;4.57;3.08;;;12.50;90.90;;;;;;4995133;28;20105;-51
2023/04/11 13:11:22;;;;;;;5.30;2.72;;;12.60;90.90;;;;;;4994419;28;20038;-54
2023/04/11 13:14:08;;;;;;;6.72;2.90;;;13.00;90.30;;;;;;4993182;28;20038;-54
2023/04/11 13:16:54;;;;;;;4.82;2.92;;;13.20;88.90;;;;;;4980737;28;20506;-52
2023/04/11 13:19:40;;;;;;;7.32;3.42;;;13.60;88.30;;;;;;4993267;28;20019;-51
2023/04/11 13:22:26;;;;;;;3.88;2.88;;;13.70;87.20;;;;;;4974217;28;20031;-55
2023/04/11 13:25:12;;;;;;;5.82;2.92;;;13.90;85.60;;;;;;4986112;28;20049;-51
2023/04/11 13:27:58;;;;;;;5.20;2.97;;;13.70;84.60;;;;;;4993140;28;20126;-53
2023/04/11 13:30:45;;;;;;;4.75;3.28;;;13.70;85.30;;;;;;4992570;28;20034;-53
2023/04/11 13:33:31;;;;;;;6.30;2.60;;;14.00;84.00;;;;;;4991119;28;20042;-53
2023/04/11 13:36:17;;;;;;;6.97;2.97;;;14.00;83.70;;;;;;4992988;28;20034;-55
2023/04/11 13:39:04;;;;;;;5.40;2.70;;;14.20;84.50;;;;;;4992428;28;20113;-61
2023/04/11 13:41:50;;;;;;;8.25;2.85;;;14.20;83.60;;;;;;4992573;28;20101;-54
2023/04/11 13:44:36;;;;;;;5.15;2.50;;;14.30;80.30;;;;;;4993349;28;20054;-56
2023/04/11 13:47:22;;;;;;;9.60;2.88;;;14.30;79.80;;;;;;4994067;28;20030;-53
2023/04/11 13:50:08;;;;;;;3.50;2.50;;;14.30;80.00;;;;;;4993327;28;20030;-52
2023/04/11 13:52:54;;;;;;;6.80;2.72;;;14.00;79.60;;;;;;4993534;28;20062;-52
2023/04/11 13:55:40;;;;;;;3.75;2.72;;;14.30;78.70;;;;;;4993927;28;20030;-54
2023/04/11 13:58:26;;;;;;;4.72;2.80;;;14.40;80.30;;;;;;4990809;28;20121;-54
2023/04/11 14:01:12;;;;;;;6.45;2.60;;;14.20;81.90;;;;;;4992346;28;20132;-54
2023/04/11 14:03:58;;;;;;;6.15;3.10;;;14.10;81.00;;;;;;4993161;28;20044;-54
2023/04/11 14:06:44;;;;;;;6.57;2.55;;;13.80;81.60;;;;;;4993304;28;20035;-52
2023/04/11 14:09:30;;;;;;;9.05;3.70;;;13.50;82.30;;;;;;4993262;28;20039;-51
2023/04/11 14:12:16;;;;;;;7.88;3.53;;;13.70;81.90;;;;;;4992883;28;20030;-53
2023/04/11 14:15:04;;;;;;;5.45;2.70;;;14.10;83.30;;;;;;4992829;28;20045;-50
2023/04/11 14:17:50;;;;;;;7.30;2.83;;;14.00;81.90;;;;;;4993057;28;20133;-53
2023/04/11 14:20:36;;;;;;;5.07;2.65;;;13.80;84.30;;;;;;4983743;28;20030;-52
2023/04/11 14:23:24;;;;;;;4.85;2.70;;;13.90;83.20;;;;;;4994424;28;20026;-56
2023/04/11 14:26:09;;;;;;;6.70;3.03;;;14.00;81.80;;;;;;4974582;28;20408;-55